Vojka Airport

RS-0005 · Vojvodina, Serbia

METAR-Geschichte RS-0005 · Vojka Airport

Unten siehst du die METARs der letzten paar Tage. Wähle ein Jahr, um ältere METARs ab dem Jahr 2007 zu durchsuchen.

23. Mai 2024

Uhrzeit Code Wetter Temp. Sichtweite Wolkendecke Wind METAR/SPECI
07:00
V
15 °C 10 km+ - 240° 240° 6 kt METAR LYBT 230500Z 24006KT 9999 -RA SCT047 15/14 Q1014 NOSIG
06:30
V
15 °C 10 km+ - 240° 240° 6 kt METAR LYBT 230430Z 24006KT 200V270 9999 FEW047 15/14 Q1014 NOSIG
06:00
V
14 °C 10 km+ - 240° 240° 7 kt METAR LYBT 230400Z 24007KT 210V280 9999 FEW040 14/14 Q1014 NOSIG
05:30
V
14 °C 10 km+ - 240° 240° 6 kt METAR LYBT 230330Z 24006KT 210V270 9999 -RA SCT040 14/14 Q1013 NOSIG
05:00
V
14 °C 10 km+ - 250° 250° 5 kt METAR LYBT 230300Z 25005KT 210V270 9999 -RA SCT040 14/14 Q1013 NOSIG
04:30
V
14 °C 10 km+ 4.000 ft 260° 260° 4 kt METAR LYBT 230230Z 26004KT 230V290 9999 -RA FEW017 BKN040 14/14 Q1014 NOSIG
04:00
V
15 °C 10 km+ - 270° 270° 4 kt METAR LYBT 230200Z 27004KT 9999 -RA FEW017 SCT040 15/15 Q1014 RERA NOSIG
03:30
V
15 °C 10 km+ 4.700 ft 280° 280° 4 kt METAR LYBT 230130Z 28004KT 250V320 9999 RA BKN047 15/14 Q1014 NOSIG
03:00
V
15 °C 10 km+ - 280° 280° 4 kt METAR LYBT 230100Z 28004KT 240V320 9999 -RA SCT047 15/14 Q1013 NOSIG
02:30
V
15 °C 10 km+ - 270° 270° 7 kt METAR LYBT 230030Z 27007KT 240V300 9999 -RA SCT047 15/15 Q1013 NOSIG
02:00
V
15 °C 10 km+ - 260° 260° 8 kt METAR LYBT 230000Z 26008KT 220V290 9999 SCT047 15/15 Q1013 NOSIG
01:30
V
15 °C 10 km+ - 240° 240° 7 kt METAR LYBT 222330Z 24007KT 210V270 9999 -RA SCT047 15/15 Q1013 NOSIG
01:00
V
15 °C 10 km+ 4.700 ft 250° 250° 10 kt METAR LYBT 222300Z 25010KT 9999 -RA BKN047 15/15 Q1013 NOSIG
00:30
V
15 °C 10 km+ - 250° 250° 5 kt METAR LYBT 222230Z 25005KT 210V290 CAVOK 15/15 Q1013 NOSIG
00:00
V
15 °C 10 km+ - 250° 250° 4 kt METAR LYBT 222200Z 25004KT 220V290 CAVOK 15/15 Q1013 NOSIG

22. Mai 2024

Uhrzeit Code Wetter Temp. Sichtweite Wolkendecke Wind METAR/SPECI
23:30
V
15 °C 10 km+ - 190° 190° 4 kt METAR LYBT 222130Z 19004KT 160V240 9999 FEW047 15/15 Q1013 NOSIG
23:00
V
16 °C 10 km+ - 180° 180° 7 kt METAR LYBT 222100Z 18007KT 140V200 9999 FEW047 16/15 Q1012 NOSIG
22:30
V
16 °C 10 km+ - 180° 180° 8 kt METAR LYBT 222030Z 18008KT 9999 FEW047 16/15 Q1012 RERA NOSIG
22:00
V
16 °C 10 km+ - 190° 190° 6 kt METAR LYBT 222000Z 19006KT 9999 RA SCT047 16/15 Q1012 NOSIG
21:30
V
16 °C 10 km+ - 210° 210° 3 kt METAR LYBT 221930Z 21003KT 170V230 9999 -RA SCT047 16/15 Q1012 NOSIG
21:00
V
16 °C 10 km+ - 130° 130° 4 kt METAR LYBT 221900Z 13004KT 080V140 9999 -RA SCT047 16/15 Q1012 NOSIG
20:30
V
17 °C 10 km+ - 160° 160° 4 kt METAR LYBT 221830Z 16004KT 9999 FEW033TCU SCT040 17/14 Q1012 TEMPO 3000 TSRA SCT030CB SCT040
19:30
V
19 °C 10 km+ - 230° 230° 8 kt METAR LYBT 221730Z 23008KT 170V260 9999 VCTS FEW033CB SCT040 19/13 Q1011 RETS TEMPO 4000 TSRA SCT030CB SCT040
19:00
V
19 °C 10 km+ - 220° 220° 14 kt METAR LYBT 221700Z 22014KT 9999 FEW033TCU SCT040 19/14 Q1011 TEMPO 4000 TSRA SCT030CB SCT040
18:30
V
22 °C 10 km+ - 170° 170° 7 kt METAR LYBT 221630Z 17007KT 140V200 9999 FEW033 SCT040 22/17 Q1010 TEMPO 23015G25KT 4000 TSRA SCT030CB SCT040
18:00
V
22 °C 10 km+ - 150° 150° 7 kt METAR LYBT 221600Z 15007KT 120V190 9999 FEW033 SCT040 22/17 Q1010 TEMPO FM1630 22015G25KT 4000 TSRA SCT030CB SCT040
17:30
V
22 °C 10 km+ - 130° 130° 8 kt METAR LYBT 221530Z 13008KT 9999 FEW040 22/17 Q1010 NOSIG
17:00
V
23 °C 10 km+ - 110° 110° 7 kt METAR LYBT 221500Z 11007KT 070V150 9999 FEW040 23/17 Q1010 NOSIG
16:30
V
23 °C 10 km+ - 090° 090° 7 kt METAR LYBT 221430Z 09007KT 060V140 9999 FEW040 23/16 Q1010 NOSIG
16:00
V
23 °C 10 km+ - 110° 110° 8 kt METAR LYBT 221400Z 11008KT 060V130 9999 FEW033TCU SCT040 23/17 Q1010 NOSIG
15:30
V
22 °C 10 km+ - 080° 080° 6 kt METAR LYBT 221330Z 08006KT 040V120 9999 FEW033TCU SCT040 22/16 Q1010 TEMPO 10018KT 4000 TSRA SCT030CB BKN040
15:00
V
22 °C 10 km+ - 080° 080° 9 kt METAR LYBT 221300Z 08009KT 050V110 9999 FEW033TCU SCT040 22/15 Q1011 NOSIG
14:30
V
23 °C 10 km+ - 090° 090° 8 kt METAR LYBT 221230Z 09008KT 050V120 9999 SCT040TCU 23/17 Q1011 NOSIG
14:00
V
23 °C 10 km+ - 070° 070° 9 kt METAR LYBT 221200Z 07009KT 020V090 9999 SCT040 23/16 Q1011 RETS NOSIG
13:30
V
23 °C 10 km+ - 010° 010° 4 kt METAR LYBT 221130Z 01004KT 320V060 9999 VCTS FEW033CB SCT040 23/15 Q1011 TEMPO 03015G25KT 4000 TSRA SCT030CB BKN040
13:00
V
25 °C 10 km+ - 340° 340° 3 kt METAR LYBT 221100Z 34003KT 240V030 9999 VCTS FEW033CB SCT040 25/15 Q1011 TEMPO 03015G25KT 4000 TSRA SCT030CB BKN040
12:30
V
24 °C 10 km+ - Var Var 2 kt METAR LYBT 221030Z VRB02KT 9999 FEW033TCU SCT040 24/16 Q1011 RETS NOSIG
12:00
V
24 °C 10 km+ - Var Var 3 kt METAR LYBT 221000Z VRB03KT 9999 TS FEW033CB SCT040 24/17 Q1011 TEMPO 12015G25KT 4000 TSRA SCT030CB BKN040
11:30
V
23 °C 10 km+ - Var Var 2 kt METAR LYBT 220930Z VRB02KT 9999 FEW040 23/17 Q1012 NOSIG
11:00
V
22 °C 10 km+ - Var Var 1 kt METAR LYBT 220900Z VRB01KT 9999 FEW033 22/17 Q1012 NOSIG
10:30
V
22 °C 10 km+ - 260° 260° 3 kt METAR LYBT 220830Z 26003KT 190V330 9999 FEW030 22/18 Q1012 NOSIG
10:00
V
21 °C 10 km+ - 260° 260° 5 kt METAR LYBT 220800Z 26005KT 210V300 9999 FEW017 21/18 Q1012 NOSIG
09:30
V
20 °C 10 km+ - 260° 260° 4 kt METAR LYBT 220730Z 26004KT 200V320 9999 FEW013 20/18 Q1011 NOSIG
09:00
V
20 °C 10 km+ - 240° 240° 6 kt METAR LYBT 220700Z 24006KT 200V290 9999 FEW010 20/18 Q1011 NOSIG
08:30
I
20 °C 10 km+ 800 ft 220° 220° 6 kt METAR LYBT 220630Z 22006KT 190V270 9999 BKN008 20/18 Q1011 NOSIG
08:00
V
19 °C 10 km+ - 220° 220° 4 kt METAR LYBT 220600Z 22004KT 180V260 9999 SCT007 19/18 Q1011 TEMPO BKN007
07:30
V
18 °C 10 km+ - 220° 220° 5 kt METAR LYBT 220530Z 22005KT 170V250 9999 SCT007 18/17 Q1011 TEMPO BKN005
07:00
V
17 °C 10 km+ - 200° 200° 3 kt METAR LYBT 220500Z 20003KT 160V260 9999 SCT004 17/17 Q1011 TEMPO BKN005
06:30
V
16 °C 10 km+ - 200° 200° 3 kt METAR LYBT 220430Z 20003KT 160V220 9999 FEW008 16/16 Q1010 TEMPO BKN005
06:00
V
16 °C 10 km+ - 180° 180° 3 kt METAR LYBT 220400Z 18003KT 150V210 CAVOK 16/16 Q1010 NOSIG
05:30
V
15 °C 10 km+ - 170° 170° 4 kt METAR LYBT 220330Z 17004KT 9999 FEW015 15/15 Q1010 NOSIG
05:00
V
15 °C 10 km+ - 130° 130° 3 kt METAR LYBT 220300Z 13003KT 9999 FEW026 15/15 Q1010 NOSIG
04:30
V
16 °C 10 km+ - 110° 110° 2 kt METAR LYBT 220230Z 11002KT 9999 SCT026 16/15 Q1010 NOSIG
04:00
V
16 °C 10 km+ - 100° 100° 2 kt METAR LYBT 220200Z 10002KT 9999 SCT026 16/16 Q1009 NOSIG
03:30
M
15 °C 10 km+ 3.000 ft Var Var 1 kt METAR LYBT 220130Z VRB01KT 9999 BKN030 15/15 Q1010 NOSIG
03:00
V
15 °C 10 km+ 3.300 ft 280° 280° 2 kt METAR LYBT 220100Z 28002KT 9999 BKN033 15/15 Q1010 NOSIG
02:30
V
16 °C 10 km+ 3.300 ft 360° 360° 0 kt METAR LYBT 220030Z 00000KT 9999 BKN033 16/15 Q1010 NOSIG
02:00
V
16 °C 10 km+ 3.300 ft Var Var 1 kt METAR LYBT 220000Z VRB01KT 9999 BKN033 16/15 Q1009 NOSIG
01:30
V
16 °C 10 km+ 4.000 ft 330° 330° 4 kt METAR LYBT 212330Z 33004KT 9999 BKN040 16/15 Q1010 NOSIG
01:00
V
17 °C 10 km+ - Var Var 2 kt METAR LYBT 212300Z VRB02KT 9999 SCT040 17/15 Q1009 NOSIG
00:30
V
17 °C 10 km+ - 100° 100° 7 kt METAR LYBT 212230Z 10007KT 070V140 CAVOK 17/15 Q1009 NOSIG
00:00
V
17 °C 10 km+ - 110° 110° 8 kt METAR LYBT 212200Z 11008KT 080V140 CAVOK 17/15 Q1009 NOSIG

21. Mai 2024

Uhrzeit Code Wetter Temp. Sichtweite Wolkendecke Wind METAR/SPECI
23:30
V
17 °C 10 km+ - 100° 100° 10 kt METAR LYBT 212130Z 10010KT CAVOK 17/16 Q1009 NOSIG
23:00
V
18 °C 10 km+ - 110° 110° 13 kt METAR LYBT 212100Z 11013KT 070V140 9999 SCT040 18/17 Q1009 RETS NOSIG
22:30
V
19 °C 10 km+ - 070° 070° 11 kt METAR LYBT 212030Z 07011KT 9999 TS SCT033CB SCT040 19/17 Q1009 TEMPO 4000 TSGR
22:00
V
19 °C 10 km+ 4.000 ft 360° 360° 6 kt METAR LYBT 212000Z 36006KT 310V030 9999 -TSRA FEW033CB BKN040 19/17 Q1010 NOSIG
21:30
V
21 °C 10 km+ 4.000 ft 350° 350° 7 kt METAR LYBT 211930Z 35007KT 290V050 9999 -TSRA FEW033CB BKN040 21/17 Q1009 NOSIG
21:00
V
21 °C 10 km+ - Var Var 1 kt METAR LYBT 211900Z VRB01KT 9999 VCTS FEW033CB SCT040 21/16 Q1009 TEMPO 4000 TSRA SCT030CB SCT040
20:30
V
22 °C 10 km+ - 110° 110° 8 kt METAR LYBT 211830Z 11008KT 080V140 9999 SCT040 22/16 Q1009 NOSIG
20:00
V
22 °C 10 km+ - 110° 110° 7 kt METAR LYBT 211800Z 11007KT 050V150 9999 SCT040 22/16 Q1008 NOSIG
19:30
V
22 °C 10 km+ - 110° 110° 7 kt METAR LYBT 211730Z 11007KT 070V140 9999 SCT040 22/15 Q1008 NOSIG
19:00
V
23 °C 10 km+ - 120° 120° 11 - 21 kt METAR LYBT 211700Z 12011G21KT 9999 SCT040 23/15 Q1007 NOSIG
18:30
V
23 °C 10 km+ - 250° 250° 7 kt METAR LYBT 211630Z 25007KT 180V290 9999 SCT040 23/15 Q1007 NOSIG
18:00
V
23 °C 10 km+ - 110° 110° 14 kt METAR LYBT 211600Z 11014KT 9999 SCT033TCU 23/15 Q1007 TEMPO 21020G30KT 3000 TSRA SCT030CB SCT040
17:30
V
24 °C 10 km+ - 120° 120° 15 kt METAR LYBT 211530Z 12015KT 9999 SCT033TCU 24/16 Q1007 TEMPO 21020G30KT 3000 TSRA SCT030CB SCT040
17:00
V
25 °C 10 km+ - 110° 110° 16 kt METAR LYBT 211500Z 11016KT 080V150 9999 FEW040 25/16 Q1007 TEMPO 21020G30KT 3000 TSRA SCT030CB SCT040
16:30
V
26 °C 10 km+ - 120° 120° 18 kt METAR LYBT 211430Z 12018KT CAVOK 26/17 Q1007 NOSIG
16:00
V
27 °C 10 km+ - 110° 110° 18 kt METAR LYBT 211400Z 11018KT 080V140 CAVOK 27/17 Q1006 NOSIG
15:30
V
27 °C 10 km+ - 110° 110° 17 kt METAR LYBT 211330Z 11017KT 080V140 9999 FEW040 27/17 Q1006 NOSIG
15:00
V
27 °C 10 km+ - 120° 120° 17 kt METAR LYBT 211300Z 12017KT 080V150 9999 FEW040 27/17 Q1007 NOSIG
14:30
V
27 °C 10 km+ - 120° 120° 17 kt METAR LYBT 211230Z 12017KT 080V150 CAVOK 27/18 Q1007 NOSIG
14:00
V
26 °C 10 km+ - 120° 120° 17 kt METAR LYBT 211200Z 12017KT 080V140 CAVOK 26/18 Q1008 NOSIG
13:30
V
26 °C 10 km+ - 120° 120° 15 kt METAR LYBT 211130Z 12015KT CAVOK 26/18 Q1008 NOSIG
13:00
V
26 °C 10 km+ - 130° 130° 15 kt METAR LYBT 211100Z 13015KT 9999 FEW040 26/18 Q1008 NOSIG
12:30
V
26 °C 10 km+ - 140° 140° 16 kt METAR LYBT 211030Z 14016KT 110V170 CAVOK 26/18 Q1009 NOSIG
12:00
V
26 °C 10 km+ - 120° 120° 14 kt METAR LYBT 211000Z 12014KT 080V140 CAVOK 26/18 Q1009 NOSIG
11:30
V
25 °C 10 km+ - 130° 130° 17 kt METAR LYBT 210930Z 13017KT CAVOK 25/17 Q1009 NOSIG
11:00
V
25 °C 10 km+ - 120° 120° 15 kt METAR LYBT 210900Z 12015KT CAVOK 25/17 Q1009 NOSIG
10:00
V
23 °C 10 km+ - 120° 120° 17 kt METAR LYBT 210800Z 12017KT 080V140 CAVOK 23/16 Q1009 NOSIG
09:30
V
22 °C 10 km+ - 110° 110° 13 kt METAR LYBT 210730Z 11013KT 080V140 CAVOK 22/16 Q1010 NOSIG
09:00
V
21 °C 10 km+ - 120° 120° 15 kt METAR LYBT 210700Z 12015KT CAVOK 21/16 Q1010 NOSIG
08:30
V
21 °C 10 km+ - 110° 110° 14 kt METAR LYBT 210630Z 11014KT 090V150 CAVOK 21/16 Q1010 NOSIG
08:00
V
20 °C 10 km+ - 120° 120° 14 kt METAR LYBT 210600Z 12014KT CAVOK 20/16 Q1010 NOSIG
07:30
V
20 °C 10 km+ - 120° 120° 14 kt METAR LYBT 210530Z 12014KT 080V140 CAVOK 20/16 Q1010 NOSIG
07:00
V
19 °C 10 km+ - 110° 110° 12 kt METAR LYBT 210500Z 11012KT 080V140 CAVOK 19/16 Q1010 BECMG 12022KT
06:30
V
19 °C 10 km+ - 110° 110° 12 kt METAR LYBT 210430Z 11012KT CAVOK 19/16 Q1010 BECMG 12022KT
06:00
V
18 °C 10 km+ - 120° 120° 9 kt METAR LYBT 210400Z 12009KT CAVOK 18/16 Q1010 NOSIG
05:30
V
18 °C 10 km+ - 110° 110° 9 kt METAR LYBT 210330Z 11009KT CAVOK 18/15 Q1010 NOSIG
05:00
V
18 °C 10 km+ - 110° 110° 9 kt METAR LYBT 210300Z 11009KT CAVOK 18/15 Q1010 NOSIG
04:30
V
18 °C 10 km+ - 110° 110° 9 kt METAR LYBT 210230Z 11009KT 070V130 CAVOK 18/15 Q1010 NOSIG
04:00
V
18 °C 10 km+ - 110° 110° 10 kt METAR LYBT 210200Z 11010KT CAVOK 18/15 Q1011 NOSIG
03:30
V
18 °C 10 km+ - 100° 100° 9 kt METAR LYBT 210130Z 10009KT 070V140 CAVOK 18/15 Q1011 NOSIG
03:00
V
18 °C 10 km+ - 100° 100° 9 kt METAR LYBT 210100Z 10009KT 070V130 CAVOK 18/15 Q1011 NOSIG
02:30
V
18 °C 10 km+ - 110° 110° 10 kt METAR LYBT 210030Z 11010KT CAVOK 18/15 Q1011 NOSIG
02:00
V
18 °C 10 km+ - 110° 110° 10 kt METAR LYBT 210000Z 11010KT CAVOK 18/15 Q1011 NOSIG
01:30
V
18 °C 10 km+ - 110° 110° 10 kt METAR LYBT 202330Z 11010KT 080V140 CAVOK 18/15 Q1011 NOSIG
01:00
V
18 °C 10 km+ - 110° 110° 8 kt METAR LYBT 202300Z 11008KT CAVOK 18/15 Q1012 NOSIG
Eine Änderung melden